Time;durP1;ratioP1;P1;durP2;ratioP2;P2;SDS_P1;SDS_P2;PMS_P1;PMS_P2;Temp;Humidity;BMP_temperature;BMP_pressure;BME280_temperature;BME280_humidity;BME280_pressure;Samples;Min_cycle;Max_cycle;Signal;HPM_P1;HPM_P2
2022/05/08 00:02:12;;;;;;;4.32;3.00;;;;;;;;;;4983643;28;20027;-67
2022/05/08 00:04:37;;;;;;;6.32;3.90;;;;;;;;;;4986596;28;20069;-67
2022/05/08 00:07:02;;;;;;;9.57;3.33;;;;;;;;;;4984011;28;20051;-66
2022/05/08 00:09:28;;;;;;;4.45;3.00;;;;;;;;;;4979715;28;20077;-66
2022/05/08 00:11:53;;;;;;;4.95;3.10;;;;;;;;;;4984690;28;20084;-66
2022/05/08 00:14:19;;;;;;;4.85;3.08;;;;;;;;;;4986353;28;20460;-66
2022/05/08 00:16:44;;;;;;;4.97;3.10;;;;;;;;;;4985109;28;20057;-67
2022/05/08 00:19:10;;;;;;;3.55;3.08;;;;;;;;;;4983695;28;20319;-66
2022/05/08 00:21:35;;;;;;;3.58;2.80;;;;;;;;;;4980179;28;20542;-66
2022/05/08 00:24:01;;;;;;;4.93;3.22;;;;;;;;;;4984416;28;20026;-67
2022/05/08 00:26:26;;;;;;;5.00;3.55;;;;;;;;;;4984262;28;20116;-67
2022/05/08 00:28:52;;;;;;;3.80;3.28;;;;;;;;;;4969143;28;20058;-67
2022/05/08 00:31:17;;;;;;;4.47;3.60;;;;;;;;;;4940482;28;1114191;-67
2022/05/08 00:33:42;;;;;;;3.63;3.15;;;;;;;;;;4989419;28;20054;-67
2022/05/08 00:36:08;;;;;;;5.82;3.47;;;;;;;;;;4985550;28;20051;-66
2022/05/08 00:38:33;;;;;;;4.65;2.92;;;;;;;;;;4989220;28;20035;-66
2022/05/08 00:40:59;;;;;;;3.95;3.28;;;;;;;;;;4979772;28;20729;-66
2022/05/08 00:43:32;;;;;;;5.05;3.45;;;;;;;;;;4984861;28;20064;-67
2022/05/08 00:46:11;;;;;;;4.25;3.40;;;;;;;;;;4983483;28;20129;-68
2022/05/08 00:48:38;;;;;;;3.78;3.35;;;;;;;;;;4985821;28;20046;-66
2022/05/08 00:51:12;;;;;;;7.85;3.28;;;;;;;;;;4987076;28;20022;-66
2022/05/08 00:53:38;;;;;;;4.63;3.65;;;;;;;;;;4982753;28;20099;-68
2022/05/08 00:56:08;;;;;;;7.45;3.80;;;;;;;;;;4983457;28;20050;-67
2022/05/08 00:58:35;;;;;;;4.63;3.63;;;;;;;;;;4987780;28;20078;-66
2022/05/08 01:01:02;;;;;;;3.65;3.35;;;;;;;;;;4985786;28;20057;-67
2022/05/08 01:03:28;;;;;;;5.97;3.97;;;;;;;;;;4987116;28;20550;-68
2022/05/08 01:05:54;;;;;;;8.77;3.45;;;;;;;;;;4985021;28;20030;-68
2022/05/08 01:08:21;;;;;;;4.80;3.80;;;;;;;;;;4985478;28;20050;-66
2022/05/08 01:10:47;;;;;;;11.57;4.05;;;;;;;;;;4988057;28;20057;-68
2022/05/08 01:13:13;;;;;;;4.13;3.38;;;;;;;;;;4988070;28;20050;-68
2022/05/08 01:15:46;;;;;;;5.05;3.35;;;;;;;;;;4987195;28;20120;-68
2022/05/08 01:18:12;;;;;;;4.72;3.45;;;;;;;;;;4987704;28;20058;-67
2022/05/08 01:20:40;;;;;;;4.57;3.20;;;;;;;;;;4986995;28;20457;-67
2022/05/08 01:23:06;;;;;;;3.92;2.95;;;;;;;;;;4987771;28;20065;-66
2022/05/08 01:25:33;;;;;;;6.15;3.30;;;;;;;;;;4987793;28;20043;-67
2022/05/08 01:28:02;;;;;;;5.00;3.35;;;;;;;;;;4985997;28;20082;-66
2022/05/08 01:30:28;;;;;;;5.35;3.42;;;;;;;;;;4988538;28;20085;-67
2022/05/08 01:32:53;;;;;;;6.22;3.40;;;;;;;;;;4987862;28;20057;-67
2022/05/08 01:35:19;;;;;;;5.60;3.30;;;;;;;;;;4987445;28;20105;-67
2022/05/08 01:37:45;;;;;;;4.40;3.45;;;;;;;;;;4986172;28;20058;-67
2022/05/08 01:40:10;;;;;;;4.75;3.40;;;;;;;;;;4986969;28;20050;-67
2022/05/08 01:42:36;;;;;;;4.00;3.28;;;;;;;;;;4986777;28;20061;-67
2022/05/08 01:45:01;;;;;;;7.72;4.15;;;;;;;;;;4986931;28;20109;-67
2022/05/08 01:50:10;;;;;;;5.25;3.78;;;;;;;;;;4986553;28;20652;-67
2022/05/08 01:52:35;;;;;;;8.27;3.78;;;;;;;;;;4985311;28;20038;-66
2022/05/08 01:55:02;;;;;;;8.73;3.92;;;;;;;;;;4986131;28;20468;-66
2022/05/08 01:57:28;;;;;;;6.20;3.30;;;;;;;;;;4986896;28;20055;-67
2022/05/08 01:59:53;;;;;;;5.85;3.30;;;;;;;;;;4987342;28;20400;-67
2022/05/08 02:02:19;;;;;;;3.92;3.47;;;;;;;;;;4982483;28;20157;-67
2022/05/08 02:04:45;;;;;;;5.97;3.58;;;;;;;;;;4986826;28;20050;-66
2022/05/08 02:07:11;;;;;;;7.57;3.50;;;;;;;;;;4987647;28;20093;-67
2022/05/08 02:09:37;;;;;;;3.88;3.28;;;;;;;;;;4986561;28;20043;-67
2022/05/08 02:12:04;;;;;;;6.45;3.60;;;;;;;;;;4986367;28;20030;-67
2022/05/08 02:14:29;;;;;;;7.28;4.00;;;;;;;;;;4987494;28;20086;-68
2022/05/08 02:16:54;;;;;;;4.57;3.88;;;;;;;;;;4982498;28;20043;-66
2022/05/08 02:19:20;;;;;;;6.07;3.58;;;;;;;;;;4988720;28;20435;-66
2022/05/08 02:21:45;;;;;;;4.80;3.65;;;;;;;;;;4984370;28;20053;-67
2022/05/08 02:24:10;;;;;;;6.40;3.47;;;;;;;;;;4986870;28;20112;-67
2022/05/08 02:26:36;;;;;;;7.72;4.05;;;;;;;;;;4986532;28;20076;-67
2022/05/08 02:29:01;;;;;;;6.13;3.88;;;;;;;;;;4984634;28;20054;-66
2022/05/08 02:31:26;;;;;;;4.25;3.60;;;;;;;;;;4985754;28;20042;-67
2022/05/08 02:33:52;;;;;;;4.50;3.55;;;;;;;;;;4986940;28;20058;-67
2022/05/08 02:36:18;;;;;;;5.32;3.80;;;;;;;;;;4980420;28;20133;-66
2022/05/08 02:38:44;;;;;;;4.10;3.38;;;;;;;;;;4967678;28;20069;-66
2022/05/08 02:41:09;;;;;;;4.13;3.40;;;;;;;;;;4987120;28;20081;-66
2022/05/08 02:43:34;;;;;;;5.95;3.50;;;;;;;;;;4989833;28;20507;-67
2022/05/08 02:46:02;;;;;;;4.95;3.55;;;;;;;;;;4986946;28;20054;-67
2022/05/08 02:48:27;;;;;;;6.63;3.85;;;;;;;;;;4987585;28;20554;-67
2022/05/08 02:50:53;;;;;;;6.97;3.83;;;;;;;;;;4984455;28;20034;-67
2022/05/08 02:53:20;;;;;;;5.10;3.38;;;;;;;;;;4988901;28;20042;-67
2022/05/08 02:58:32;;;;;;;6.60;3.65;;;;;;;;;;4985516;28;20197;-67
2022/05/08 03:00:59;;;;;;;6.75;3.88;;;;;;;;;;4987485;28;20100;-67
2022/05/08 03:03:25;;;;;;;5.72;4.00;;;;;;;;;;4986579;28;20058;-67
2022/05/08 03:05:50;;;;;;;5.60;4.32;;;;;;;;;;4989387;28;20468;-66
2022/05/08 03:08:17;;;;;;;5.65;4.10;;;;;;;;;;4983521;28;20145;-67
2022/05/08 03:13:29;;;;;;;8.32;4.93;;;;;;;;;;4988573;28;20057;-68
2022/05/08 03:15:54;;;;;;;8.38;4.82;;;;;;;;;;4986933;28;20550;-69
2022/05/08 03:18:19;;;;;;;6.50;4.40;;;;;;;;;;4988687;28;20054;-66
2022/05/08 03:20:45;;;;;;;5.40;4.30;;;;;;;;;;4988268;28;20062;-67
2022/05/08 03:23:10;;;;;;;9.82;4.22;;;;;;;;;;4991305;28;20133;-67
2022/05/08 03:25:36;;;;;;;7.05;4.68;;;;;;;;;;4987083;28;20046;-67
2022/05/08 03:28:03;;;;;;;8.18;4.50;;;;;;;;;;4991812;28;20058;-67
2022/05/08 03:30:28;;;;;;;7.43;4.75;;;;;;;;;;4985772;28;20433;-67
2022/05/08 03:32:54;;;;;;;8.52;5.10;;;;;;;;;;4985543;28;20037;-67
2022/05/08 03:35:20;;;;;;;6.93;4.88;;;;;;;;;;4989034;28;20181;-66
2022/05/08 03:37:45;;;;;;;8.82;5.13;;;;;;;;;;4987644;28;20133;-67
2022/05/08 03:40:10;;;;;;;6.95;4.85;;;;;;;;;;4990007;28;20488;-67
2022/05/08 03:42:36;;;;;;;7.35;5.00;;;;;;;;;;4988376;28;20414;-67
2022/05/08 03:45:01;;;;;;;7.60;5.15;;;;;;;;;;4986720;28;20026;-68
2022/05/08 03:47:27;;;;;;;8.98;5.30;;;;;;;;;;4986574;28;20210;-68
2022/05/08 03:49:53;;;;;;;7.95;5.05;;;;;;;;;;4987694;28;20042;-68
2022/05/08 03:52:18;;;;;;;7.13;4.90;;;;;;;;;;4988249;28;20034;-67
2022/05/08 03:54:44;;;;;;;9.73;5.30;;;;;;;;;;4987692;28;20053;-68
2022/05/08 03:57:09;;;;;;;9.70;4.90;;;;;;;;;;4986344;28;20585;-67
2022/05/08 03:59:34;;;;;;;7.13;4.93;;;;;;;;;;4989276;28;20033;-67
2022/05/08 04:02:00;;;;;;;6.53;4.85;;;;;;;;;;4988862;28;20141;-67
2022/05/08 04:04:25;;;;;;;7.40;4.88;;;;;;;;;;4988619;28;20072;-67
2022/05/08 04:06:50;;;;;;;10.88;5.25;;;;;;;;;;4986621;28;20173;-67
2022/05/08 04:09:16;;;;;;;6.60;5.00;;;;;;;;;;4988543;28;20473;-67
2022/05/08 04:11:41;;;;;;;7.43;4.68;;;;;;;;;;4987336;28;20045;-67
2022/05/08 04:14:07;;;;;;;5.82;4.63;;;;;;;;;;4985444;28;20041;-67
2022/05/08 04:16:33;;;;;;;7.60;4.90;;;;;;;;;;4986579;28;20057;-67
2022/05/08 04:18:58;;;;;;;6.15;5.18;;;;;;;;;;4988884;28;20614;-67
2022/05/08 04:21:23;;;;;;;6.53;4.80;;;;;;;;;;4990143;28;20042;-66
2022/05/08 04:26:33;;;;;;;9.20;5.00;;;;;;;;;;4987383;28;20115;-66
2022/05/08 04:28:59;;;;;;;6.47;4.60;;;;;;;;;;4987054;28;20062;-64
2022/05/08 04:31:25;;;;;;;7.25;4.72;;;;;;;;;;4987145;28;20050;-67
2022/05/08 04:33:50;;;;;;;8.13;4.85;;;;;;;;;;4987393;28;20149;-66
2022/05/08 04:36:17;;;;;;;6.15;4.30;;;;;;;;;;4987227;28;20122;-66
2022/05/08 04:38:42;;;;;;;5.30;4.28;;;;;;;;;;4989079;28;20116;-67
2022/05/08 04:41:07;;;;;;;7.72;5.03;;;;;;;;;;4987523;28;20078;-67
2022/05/08 04:43:33;;;;;;;6.47;4.25;;;;;;;;;;4988449;28;20062;-67
2022/05/08 04:45:59;;;;;;;6.85;4.57;;;;;;;;;;4987919;28;20054;-67
2022/05/08 04:48:24;;;;;;;7.45;4.55;;;;;;;;;;4985900;28;20122;-68
2022/05/08 04:50:49;;;;;;;5.25;3.80;;;;;;;;;;4987688;28;20045;-67
2022/05/08 04:53:15;;;;;;;7.95;4.40;;;;;;;;;;4992250;28;20101;-67
2022/05/08 04:55:40;;;;;;;6.55;4.90;;;;;;;;;;4994011;28;20038;-66
2022/05/08 04:58:05;;;;;;;6.85;4.88;;;;;;;;;;4992070;28;20046;-67
2022/05/08 05:00:31;;;;;;;7.55;5.20;;;;;;;;;;4990390;28;20125;-67
2022/05/08 05:02:56;;;;;;;7.72;5.10;;;;;;;;;;4989507;28;20050;-66
2022/05/08 05:05:22;;;;;;;6.15;4.65;;;;;;;;;;4989208;28;20064;-66
2022/05/08 05:07:47;;;;;;;8.23;4.95;;;;;;;;;;4983918;28;20052;-67
2022/05/08 05:10:13;;;;;;;7.45;4.85;;;;;;;;;;4984346;28;20157;-66
2022/05/08 05:12:39;;;;;;;9.85;5.10;;;;;;;;;;4988338;28;20129;-67
2022/05/08 05:15:08;;;;;;;6.85;5.03;;;;;;;;;;4987235;28;20041;-67
2022/05/08 05:17:34;;;;;;;8.50;5.28;;;;;;;;;;4987935;28;20418;-67
2022/05/08 05:19:59;;;;;;;7.30;5.22;;;;;;;;;;4985592;28;20065;-66
2022/05/08 05:22:25;;;;;;;7.25;5.00;;;;;;;;;;4987492;28;20046;-67
2022/05/08 05:24:50;;;;;;;7.45;5.20;;;;;;;;;;4989595;28;20034;-67
2022/05/08 05:27:17;;;;;;;9.13;4.80;;;;;;;;;;4988115;28;20049;-66
2022/05/08 05:29:42;;;;;;;6.15;4.93;;;;;;;;;;4994165;28;20046;-67
2022/05/08 05:32:08;;;;;;;5.75;4.60;;;;;;;;;;4986101;28;20694;-66
2022/05/08 05:34:33;;;;;;;7.53;5.68;;;;;;;;;;4988619;28;20447;-67
2022/05/08 05:36:59;;;;;;;8.05;5.40;;;;;;;;;;4989739;28;20054;-66
2022/05/08 05:39:24;;;;;;;6.72;5.05;;;;;;;;;;4987169;28;20204;-67
2022/05/08 05:41:52;;;;;;;5.57;4.78;;;;;;;;;;4988310;28;20380;-67
2022/05/08 05:44:18;;;;;;;10.10;5.30;;;;;;;;;;4989093;28;20034;-67
2022/05/08 05:49:27;;;;;;;6.00;4.60;;;;;;;;;;4986671;28;21827;-66
2022/05/08 05:51:56;;;;;;;8.05;4.70;;;;;;;;;;4977375;28;20039;-66
2022/05/08 05:54:22;;;;;;;11.85;5.07;;;;;;;;;;4968659;28;20054;-66
2022/05/08 05:56:48;;;;;;;7.40;4.60;;;;;;;;;;4969169;28;20027;-67
2022/05/08 05:59:14;;;;;;;6.78;4.75;;;;;;;;;;4985461;28;20026;-66
2022/05/08 06:01:39;;;;;;;5.50;4.72;;;;;;;;;;4973993;28;20466;-67
2022/05/08 06:04:04;;;;;;;8.15;4.93;;;;;;;;;;4969349;28;20060;-67
2022/05/08 06:06:30;;;;;;;9.18;4.95;;;;;;;;;;4974700;28;20085;-66
2022/05/08 06:08:55;;;;;;;6.13;4.82;;;;;;;;;;4987661;28;20037;-67
2022/05/08 06:11:20;;;;;;;7.53;4.90;;;;;;;;;;4986527;28;20522;-68
2022/05/08 06:13:46;;;;;;;5.55;4.50;;;;;;;;;;4987381;28;20477;-67
2022/05/08 06:16:11;;;;;;;8.18;4.78;;;;;;;;;;4986547;28;20055;-67
2022/05/08 06:18:37;;;;;;;7.25;5.10;;;;;;;;;;4985620;28;20398;-67
2022/05/08 06:21:03;;;;;;;6.50;4.63;;;;;;;;;;4984931;28;20109;-66
2022/05/08 06:23:28;;;;;;;5.47;4.43;;;;;;;;;;4986484;28;20065;-66
2022/05/08 06:25:53;;;;;;;9.57;5.20;;;;;;;;;;4982065;28;20131;-52
2022/05/08 06:28:19;;;;;;;11.48;5.07;;;;;;;;;;4983818;28;20061;-53
2022/05/08 06:30:46;;;;;;;10.57;4.80;;;;;;;;;;4987000;28;20061;-50
2022/05/08 06:33:11;;;;;;;5.68;4.57;;;;;;;;;;4986742;28;20082;-53
2022/05/08 06:35:40;;;;;;;7.85;4.82;;;;;;;;;;4991229;28;20074;-53
2022/05/08 06:38:12;;;;;;;5.60;4.55;;;;;;;;;;4986740;28;20123;-51
2022/05/08 06:40:39;;;;;;;10.93;4.82;;;;;;;;;;4987688;28;20049;-51
2022/05/08 06:43:05;;;;;;;6.53;4.70;;;;;;;;;;4985523;28;20077;-51
2022/05/08 06:45:30;;;;;;;6.38;4.70;;;;;;;;;;4986769;28;20153;-52
2022/05/08 06:47:55;;;;;;;6.00;4.78;;;;;;;;;;4983560;28;20510;-51
2022/05/08 06:50:21;;;;;;;5.80;4.70;;;;;;;;;;4987603;28;20030;-53
2022/05/08 06:52:46;;;;;;;5.55;4.35;;;;;;;;;;4983316;28;20119;-57
2022/05/08 06:55:12;;;;;;;5.40;4.18;;;;;;;;;;4986549;28;20133;-52
2022/05/08 06:57:37;;;;;;;7.93;4.80;;;;;;;;;;4987624;28;20061;-52
2022/05/08 07:02:48;;;;;;;6.25;4.15;;;;;;;;;;4968859;28;20041;-54
2022/05/08 07:05:13;;;;;;;4.85;3.80;;;;;;;;;;4985667;28;20034;-51
2022/05/08 07:07:39;;;;;;;5.82;4.40;;;;;;;;;;4986504;28;20142;-52
2022/05/08 07:10:04;;;;;;;6.72;4.13;;;;;;;;;;4988942;28;20058;-52
2022/05/08 07:12:30;;;;;;;7.45;3.88;;;;;;;;;;4985473;28;20073;-55
2022/05/08 07:14:55;;;;;;;6.18;3.97;;;;;;;;;;4987579;28;20469;-53
2022/05/08 07:17:23;;;;;;;7.68;4.22;;;;;;;;;;4989701;28;20116;-52
2022/05/08 07:19:48;;;;;;;6.63;4.10;;;;;;;;;;4984206;28;20046;-49
2022/05/08 07:22:17;;;;;;;4.38;3.45;;;;;;;;;;4989044;28;20054;-51
2022/05/08 07:24:42;;;;;;;4.75;3.65;;;;;;;;;;4986349;28;20366;-52
2022/05/08 07:27:11;;;;;;;6.60;3.80;;;;;;;;;;4984739;28;20484;-54
2022/05/08 07:29:40;;;;;;;5.68;4.07;;;;;;;;;;4992385;28;20030;-52
2022/05/08 07:32:05;;;;;;;5.28;3.70;;;;;;;;;;4986889;28;20046;-53
2022/05/08 07:37:15;;;;;;;7.47;3.67;;;;;;;;;;4983986;28;20515;-55
2022/05/08 07:39:40;;;;;;;6.32;3.97;;;;;;;;;;4981670;28;20054;-53
2022/05/08 07:42:06;;;;;;;4.05;3.53;;;;;;;;;;4983876;28;20416;-53
2022/05/08 07:44:31;;;;;;;6.90;3.72;;;;;;;;;;4986598;28;20090;-53
2022/05/08 07:46:57;;;;;;;5.82;3.90;;;;;;;;;;4984225;28;20192;-54
2022/05/08 07:49:22;;;;;;;5.60;3.90;;;;;;;;;;4985692;28;20092;-51
2022/05/08 07:51:47;;;;;;;6.57;3.90;;;;;;;;;;4985320;28;20043;-51
2022/05/08 07:54:13;;;;;;;6.85;3.92;;;;;;;;;;4981382;28;20062;-52
2022/05/08 07:56:39;;;;;;;7.50;4.18;;;;;;;;;;4992576;28;20030;-52
2022/05/08 07:59:04;;;;;;;4.30;3.42;;;;;;;;;;4989375;28;20077;-50
2022/05/08 08:01:30;;;;;;;5.82;4.13;;;;;;;;;;4989646;28;20481;-52
2022/05/08 08:03:55;;;;;;;5.68;3.55;;;;;;;;;;4989197;28;20546;-53
2022/05/08 08:06:20;;;;;;;7.13;4.38;;;;;;;;;;4990904;28;20100;-54
2022/05/08 08:08:46;;;;;;;4.93;3.88;;;;;;;;;;4991434;28;20145;-57
2022/05/08 08:11:11;;;;;;;6.10;4.20;;;;;;;;;;4991723;28;20440;-52
2022/05/08 08:13:37;;;;;;;6.53;4.32;;;;;;;;;;4989066;28;20077;-56
2022/05/08 08:16:03;;;;;;;4.88;4.05;;;;;;;;;;4987933;28;20132;-53
2022/05/08 08:18:29;;;;;;;5.70;4.00;;;;;;;;;;4985084;28;20076;-51
2022/05/08 08:20:55;;;;;;;5.80;3.50;;;;;;;;;;4989830;28;20077;-53
2022/05/08 08:23:21;;;;;;;4.20;3.70;;;;;;;;;;4986309;28;20043;-49
2022/05/08 08:25:46;;;;;;;4.07;3.55;;;;;;;;;;4986685;28;20042;-51
2022/05/08 08:28:12;;;;;;;6.03;4.22;;;;;;;;;;4987357;28;20091;-54
2022/05/08 08:30:37;;;;;;;4.43;3.85;;;;;;;;;;4984831;28;20045;-53
2022/05/08 08:33:02;;;;;;;4.38;3.42;;;;;;;;;;4986614;28;20121;-54
2022/05/08 08:35:28;;;;;;;4.85;3.58;;;;;;;;;;4982801;28;20042;-48
2022/05/08 08:37:54;;;;;;;5.80;3.70;;;;;;;;;;4985744;28;20484;-54
2022/05/08 08:40:20;;;;;;;6.35;3.72;;;;;;;;;;4986681;28;20128;-51
2022/05/08 08:42:46;;;;;;;6.88;4.25;;;;;;;;;;4983750;28;20369;-53
2022/05/08 08:48:10;;;;;;;6.25;3.70;;;;;;;;;;4981343;28;20041;-51
2022/05/08 08:50:36;;;;;;;6.25;4.15;;;;;;;;;;4967135;28;20034;-55
2022/05/08 08:53:04;;;;;;;6.30;4.25;;;;;;;;;;4984436;28;20043;-54
2022/05/08 08:55:31;;;;;;;4.82;3.53;;;;;;;;;;4985880;28;20042;-53
2022/05/08 08:57:56;;;;;;;4.22;3.83;;;;;;;;;;4985478;28;20381;-54
2022/05/08 09:00:22;;;;;;;5.40;3.78;;;;;;;;;;4982393;28;20130;-52
2022/05/08 09:02:50;;;;;;;6.13;4.07;;;;;;;;;;4970215;28;20341;-52
2022/05/08 09:05:15;;;;;;;4.95;4.00;;;;;;;;;;4990815;28;20035;-52
2022/05/08 09:07:46;;;;;;;4.60;3.67;;;;;;;;;;4991684;28;20034;-52
2022/05/08 09:10:19;;;;;;;4.50;4.10;;;;;;;;;;4988921;28;20053;-49
2022/05/08 09:13:02;;;;;;;5.47;3.35;;;;;;;;;;4992597;28;20038;-54
2022/05/08 09:15:32;;;;;;;6.63;3.40;;;;;;;;;;4984109;28;20077;-55
2022/05/08 09:18:03;;;;;;;5.00;3.65;;;;;;;;;;4972617;28;20050;-53
2022/05/08 09:20:41;;;;;;;4.53;3.67;;;;;;;;;;4987365;28;20042;-52
2022/05/08 09:23:17;;;;;;;4.50;3.45;;;;;;;;;;4985224;28;20046;-53
2022/05/08 09:26:08;;;;;;;5.10;3.80;;;;;;;;;;4986123;28;20105;-51
2022/05/08 09:28:42;;;;;;;5.53;3.40;;;;;;;;;;4991860;28;20120;-53
2022/05/08 09:31:12;;;;;;;4.13;3.38;;;;;;;;;;4988651;28;20054;-52
2022/05/08 09:33:38;;;;;;;4.50;3.30;;;;;;;;;;4989192;28;20068;-56
2022/05/08 09:36:07;;;;;;;7.00;3.53;;;;;;;;;;4984158;28;20417;-54
2022/05/08 09:38:53;;;;;;;4.78;3.30;;;;;;;;;;4985584;28;20089;-52
2022/05/08 09:41:23;;;;;;;8.13;3.13;;;;;;;;;;4985623;28;20137;-49
2022/05/08 09:43:51;;;;;;;7.38;3.72;;;;;;;;;;4986371;28;20050;-54
2022/05/08 09:46:17;;;;;;;4.93;3.20;;;;;;;;;;4985653;28;20052;-53
2022/05/08 09:48:44;;;;;;;5.00;3.30;;;;;;;;;;4986126;28;20043;-51
2022/05/08 09:51:11;;;;;;;6.53;3.45;;;;;;;;;;4981681;28;20057;-52
2022/05/08 09:53:39;;;;;;;6.43;4.30;;;;;;;;;;4988026;28;20444;-48
2022/05/08 09:56:07;;;;;;;4.97;3.20;;;;;;;;;;4986916;28;20062;-54
2022/05/08 09:58:33;;;;;;;5.38;3.50;;;;;;;;;;4979294;28;20046;-54
2022/05/08 10:00:59;;;;;;;3.40;2.88;;;;;;;;;;4983317;28;20084;-61
2022/05/08 10:03:26;;;;;;;3.22;2.92;;;;;;;;;;4984991;28;20145;-52
2022/05/08 10:05:53;;;;;;;5.40;3.33;;;;;;;;;;4988524;28;20030;-52
2022/05/08 10:08:25;;;;;;;3.67;2.95;;;;;;;;;;4990123;28;20061;-51
2022/05/08 10:13:56;;;;;;;3.47;2.72;;;;;;;;;;4985632;28;20048;-52
2022/05/08 10:16:46;;;;;;;6.97;3.20;;;;;;;;;;4984240;28;20062;-51
2022/05/08 10:19:23;;;;;;;5.50;3.33;;;;;;;;;;4981379;28;20050;-50
2022/05/08 10:22:15;;;;;;;4.13;2.90;;;;;;;;;;4983339;28;20046;-51
2022/05/08 10:24:47;;;;;;;3.50;3.00;;;;;;;;;;4988277;28;20039;-56
2022/05/08 10:27:30;;;;;;;5.97;3.20;;;;;;;;;;4990687;28;20066;-53
2022/05/08 10:29:56;;;;;;;7.57;3.15;;;;;;;;;;4987471;28;20038;-54
2022/05/08 10:32:33;;;;;;;3.47;2.97;;;;;;;;;;4987295;28;20041;-48
2022/05/08 10:35:11;;;;;;;3.60;2.80;;;;;;;;;;4983009;28;20129;-50
2022/05/08 10:37:41;;;;;;;5.60;2.75;;;;;;;;;;4983964;28;20053;-50
2022/05/08 10:40:31;;;;;;;5.25;3.38;;;;;;;;;;4985897;28;20136;-51
2022/05/08 10:43:12;;;;;;;6.43;3.40;;;;;;;;;;4975495;28;20077;-55
2022/05/08 10:45:41;;;;;;;5.45;3.53;;;;;;;;;;4984705;28;20184;-56
2022/05/08 10:48:07;;;;;;;4.03;3.15;;;;;;;;;;4982477;28;20504;-56
2022/05/08 10:50:34;;;;;;;4.15;3.20;;;;;;;;;;4982943;28;20030;-53
2022/05/08 10:52:59;;;;;;;4.57;3.33;;;;;;;;;;4986301;28;20050;-51
2022/05/08 10:55:26;;;;;;;3.70;3.15;;;;;;;;;;4984326;28;20050;-52
2022/05/08 10:57:53;;;;;;;3.88;3.05;;;;;;;;;;4983142;28;20046;-52
2022/05/08 11:00:21;;;;;;;4.38;2.80;;;;;;;;;;4986687;28;20429;-50
2022/05/08 11:02:47;;;;;;;3.72;3.08;;;;;;;;;;4987710;28;20080;-51
2022/05/08 11:05:16;;;;;;;4.43;2.90;;;;;;;;;;4984569;28;20082;-55
2022/05/08 11:07:52;;;;;;;3.78;2.72;;;;;;;;;;4982596;28;20326;-51
2022/05/08 11:10:38;;;;;;;6.07;3.40;;;;;;;;;;4982887;28;20074;-53
2022/05/08 11:13:12;;;;;;;5.78;3.22;;;;;;;;;;4986103;28;20192;-52
2022/05/08 11:15:39;;;;;;;4.75;3.03;;;;;;;;;;4982689;28;20118;-53
2022/05/08 11:18:07;;;;;;;4.10;3.20;;;;;;;;;;4983423;28;20469;-50
2022/05/08 11:20:36;;;;;;;6.20;2.90;;;;;;;;;;4985098;28;20030;-51
2022/05/08 11:23:04;;;;;;;3.42;3.13;;;;;;;;;;4983908;28;20042;-52
2022/05/08 11:25:30;;;;;;;4.72;3.03;;;;;;;;;;4983600;28;21395;-53
2022/05/08 11:27:55;;;;;;;3.95;3.10;;;;;;;;;;4987940;28;20109;-51
2022/05/08 11:30:35;;;;;;;5.32;3.13;;;;;;;;;;4988140;28;20137;-53
2022/05/08 11:36:04;;;;;;;3.50;3.17;;;;;;;;;;4989829;28;20065;-55
2022/05/08 11:38:52;;;;;;;3.30;3.00;;;;;;;;;;4990357;28;20065;-51
2022/05/08 11:41:25;;;;;;;6.13;3.33;;;;;;;;;;4966464;28;20050;-50
2022/05/08 11:43:54;;;;;;;5.45;2.97;;;;;;;;;;4987484;28;20087;-51
2022/05/08 11:46:37;;;;;;;4.43;3.00;;;;;;;;;;4984111;28;20113;-52
2022/05/08 11:49:20;;;;;;;6.50;3.20;;;;;;;;;;4990950;28;20192;-53
2022/05/08 11:51:46;;;;;;;;;;;;;;;;;;4988529;28;20201;-51
2022/05/08 11:54:22;;;;;;;3.03;2.83;;;;;;;;;;4991962;28;19921;-53
2022/05/08 11:56:51;;;;;;;5.72;3.53;;;;;;;;;;4986464;28;20106;-53
2022/05/08 11:59:23;;;;;;;5.95;2.95;;;;;;;;;;4990405;28;20361;-51
2022/05/08 12:01:54;;;;;;;4.07;2.80;;;;;;;;;;4986138;28;20163;-52
2022/05/08 12:04:36;;;;;;;7.43;2.83;;;;;;;;;;4989972;28;20420;-51
2022/05/08 12:07:07;;;;;;;4.87;3.23;;;;;;;;;;4987816;28;20054;-52
2022/05/08 12:09:51;;;;;;;7.38;3.60;;;;;;;;;;4985984;28;20083;-51
2022/05/08 12:12:26;;;;;;;5.68;2.72;;;;;;;;;;4985654;28;20038;-51
2022/05/08 12:15:02;;;;;;;3.03;2.00;;;;;;;;;;4990453;28;20034;-53
2022/05/08 12:17:29;;;;;;;3.55;2.10;;;;;;;;;;4988294;28;20080;-52
2022/05/08 12:19:59;;;;;;;5.85;2.20;;;;;;;;;;4987759;28;20050;-52
2022/05/08 12:22:26;;;;;;;6.30;2.25;;;;;;;;;;4981749;28;20078;-51
2022/05/08 12:24:53;;;;;;;3.42;2.50;;;;;;;;;;4986883;28;20038;-54
2022/05/08 12:27:19;;;;;;;6.53;2.00;;;;;;;;;;4985663;28;20042;-55
2022/05/08 12:29:46;;;;;;;3.60;2.30;;;;;;;;;;4984798;28;20054;-53
2022/05/08 12:32:12;;;;;;;5.15;2.28;;;;;;;;;;4987211;28;20054;-54
2022/05/08 12:34:40;;;;;;;5.00;2.80;;;;;;;;;;4988610;28;20039;-54
2022/05/08 12:37:06;;;;;;;3.38;2.00;;;;;;;;;;4988581;28;20050;-51
2022/05/08 12:39:31;;;;;;;3.30;2.13;;;;;;;;;;4991645;28;20038;-48
2022/05/08 12:41:57;;;;;;;3.80;2.00;;;;;;;;;;4989705;28;20032;-49
2022/05/08 12:44:22;;;;;;;3.83;2.20;;;;;;;;;;4991464;28;20073;-49
2022/05/08 12:46:48;;;;;;;3.35;2.40;;;;;;;;;;4986633;28;20064;-51
2022/05/08 12:49:15;;;;;;;7.65;3.60;;;;;;;;;;4988415;28;20049;-54
2022/05/08 12:51:42;;;;;;;5.30;3.78;;;;;;;;;;4985425;28;20456;-53
2022/05/08 12:54:08;;;;;;;3.47;2.35;;;;;;;;;;4983634;28;20042;-52
2022/05/08 12:56:34;;;;;;;5.90;2.10;;;;;;;;;;4985472;28;20113;-53
2022/05/08 13:01:44;;;;;;;5.10;2.20;;;;;;;;;;4987960;28;20045;-54
2022/05/08 13:04:10;;;;;;;3.72;2.28;;;;;;;;;;4991891;28;20416;-54
2022/05/08 13:06:36;;;;;;;3.58;2.20;;;;;;;;;;4987890;28;21020;-53
2022/05/08 13:09:03;;;;;;;3.47;2.40;;;;;;;;;;4987357;28;20034;-54
2022/05/08 13:11:29;;;;;;;3.35;1.90;;;;;;;;;;4984139;28;20137;-52
2022/05/08 13:13:55;;;;;;;3.72;1.90;;;;;;;;;;4987214;28;20141;-54
2022/05/08 13:16:22;;;;;;;4.05;2.20;;;;;;;;;;4983416;28;20455;-51
2022/05/08 13:18:47;;;;;;;2.33;2.00;;;;;;;;;;4987332;28;20051;-52
2022/05/08 13:21:14;;;;;;;3.05;2.08;;;;;;;;;;4985583;28;20077;-53
2022/05/08 13:23:40;;;;;;;3.80;1.95;;;;;;;;;;4982869;28;20430;-51
2022/05/08 13:26:05;;;;;;;2.15;1.70;;;;;;;;;;4984066;28;20054;-55
2022/05/08 13:28:32;;;;;;;2.83;2.25;;;;;;;;;;4982869;28;20062;-53
2022/05/08 13:30:59;;;;;;;4.78;2.42;;;;;;;;;;4986945;28;20050;-54
2022/05/08 13:33:24;;;;;;;3.47;2.20;;;;;;;;;;4985014;28;20124;-50
2022/05/08 13:35:50;;;;;;;3.90;2.30;;;;;;;;;;4984508;28;20481;-54
2022/05/08 13:38:16;;;;;;;5.57;2.45;;;;;;;;;;4982371;28;20108;-53
2022/05/08 13:40:42;;;;;;;2.75;1.85;;;;;;;;;;4985084;28;20042;-51
2022/05/08 13:43:07;;;;;;;5.40;2.92;;;;;;;;;;4983006;28;21013;-51
2022/05/08 13:45:32;;;;;;;2.70;2.10;;;;;;;;;;4975949;28;20070;-53
2022/05/08 13:47:58;;;;;;;3.13;1.85;;;;;;;;;;4987661;28;20039;-52
2022/05/08 13:50:23;;;;;;;4.32;2.08;;;;;;;;;;4988422;28;20437;-53
2022/05/08 13:52:48;;;;;;;3.13;1.70;;;;;;;;;;4987451;28;20151;-50
2022/05/08 13:55:15;;;;;;;2.47;2.10;;;;;;;;;;4985906;28;20506;-51
2022/05/08 13:57:42;;;;;;;4.03;2.20;;;;;;;;;;4983338;28;20117;-55
2022/05/08 14:00:13;;;;;;;3.53;2.20;;;;;;;;;;4986313;28;20566;-52
2022/05/08 14:02:38;;;;;;;3.40;2.05;;;;;;;;;;4985411;28;20415;-54
2022/05/08 14:05:04;;;;;;;3.55;1.95;;;;;;;;;;4981538;28;20131;-53
2022/05/08 14:07:30;;;;;;;3.60;2.33;;;;;;;;;;4973329;28;20074;-53
2022/05/08 14:09:56;;;;;;;2.65;2.10;;;;;;;;;;4976262;28;20050;-54
2022/05/08 14:12:21;;;;;;;3.08;2.03;;;;;;;;;;4985594;28;20042;-54
2022/05/08 14:14:46;;;;;;;3.55;2.08;;;;;;;;;;4986374;28;20041;-57
2022/05/08 14:17:12;;;;;;;4.65;2.17;;;;;;;;;;4988454;28;20542;-55
2022/05/08 14:19:37;;;;;;;2.28;2.08;;;;;;;;;;4983666;28;20042;-54
2022/05/08 14:22:03;;;;;;;5.90;1.92;;;;;;;;;;4986350;28;20148;-52
2022/05/08 14:24:29;;;;;;;5.40;1.85;;;;;;;;;;4986811;28;20146;-49
2022/05/08 14:26:54;;;;;;;2.40;2.10;;;;;;;;;;4986282;28;20420;-51
2022/05/08 14:29:19;;;;;;;3.15;2.15;;;;;;;;;;4987421;28;20041;-53
2022/05/08 14:37:13;;;;;;;2.28;1.95;;;;;;;;;;4986337;28;20060;-53
2022/05/08 14:39:38;;;;;;;4.68;2.53;;;;;;;;;;4983377;28;20133;-53
2022/05/08 14:42:04;;;;;;;3.15;2.45;;;;;;;;;;4985123;28;20543;-52
2022/05/08 14:44:29;;;;;;;9.38;2.72;;;;;;;;;;4984735;28;20105;-51
2022/05/08 14:46:55;;;;;;;6.10;2.72;;;;;;;;;;4983826;28;20039;-50
2022/05/08 14:49:20;;;;;;;6.50;2.70;;;;;;;;;;4986274;28;20050;-54
2022/05/08 14:51:46;;;;;;;6.63;2.92;;;;;;;;;;4972091;28;20055;-52
2022/05/08 14:54:11;;;;;;;8.45;2.95;;;;;;;;;;4973522;23;20035;-62
2022/05/08 14:56:36;;;;;;;4.15;2.60;;;;;;;;;;4964862;28;20026;-62
2022/05/08 14:59:02;;;;;;;6.35;2.92;;;;;;;;;;4966835;28;20031;-64
2022/05/08 15:01:28;;;;;;;5.68;2.63;;;;;;;;;;4965677;28;20597;-62
2022/05/08 15:03:53;;;;;;;5.25;3.20;;;;;;;;;;4966137;28;20383;-62
2022/05/08 15:06:20;;;;;;;3.95;2.40;;;;;;;;;;4970794;28;20043;-62
2022/05/08 15:08:46;;;;;;;3.25;2.40;;;;;;;;;;4972243;28;20045;-63
2022/05/08 15:11:12;;;;;;;10.70;2.78;;;;;;;;;;4966921;28;20483;-61
2022/05/08 15:13:38;;;;;;;3.33;2.42;;;;;;;;;;4965757;28;20109;-60
2022/05/08 15:16:04;;;;;;;5.85;3.03;;;;;;;;;;4954140;28;20739;-61
2022/05/08 15:21:13;;;;;;;2.35;2.08;;;;;;;;;;4965228;28;20362;-63
2022/05/08 15:23:38;;;;;;;7.72;2.55;;;;;;;;;;4971778;28;20043;-63